sensor_id;sensor_type;location;lat;lon;timestamp;pressure;altitude;pressure_sealevel;temperature;humidity
5753;BME280;2901;42.140;24.760;2023-04-06T00:02:06;99256.97;;;4.35;83.56
5753;BME280;2901;42.140;24.760;2023-04-06T00:04:31;99255.25;;;4.34;83.86
5753;BME280;2901;42.140;24.760;2023-04-06T00:06:57;99240.69;;;4.32;83.65
5753;BME280;2901;42.140;24.760;2023-04-06T00:09:22;99261.97;;;4.26;84.30
5753;BME280;2901;42.140;24.760;2023-04-06T00:11:47;99257.63;;;4.21;83.63
5753;BME280;2901;42.140;24.760;2023-04-06T00:14:13;99244.78;;;4.19;83.62
5753;BME280;2901;42.140;24.760;2023-04-06T00:16:39;99248.94;;;4.12;84.16
5753;BME280;2901;42.140;24.760;2023-04-06T00:19:04;99247.28;;;4.14;84.60
5753;BME280;2901;42.140;24.760;2023-04-06T00:21:30;99253.19;;;4.12;84.04
5753;BME280;2901;42.140;24.760;2023-04-06T00:23:56;99251.41;;;4.05;84.45
5753;BME280;2901;42.140;24.760;2023-04-06T00:26:21;99245.50;;;4.10;84.76
5753;BME280;2901;42.140;24.760;2023-04-06T00:28:47;99240.34;;;4.07;85.30
5753;BME280;2901;42.140;24.760;2023-04-06T00:31:12;99242.00;;;4.04;85.27
5753;BME280;2901;42.140;24.760;2023-04-06T00:33:37;99235.97;;;4.02;84.78
5753;BME280;2901;42.140;24.760;2023-04-06T00:36:03;99246.16;;;3.99;85.06
5753;BME280;2901;42.140;24.760;2023-04-06T00:38:28;99234.91;;;3.89;85.55
5753;BME280;2901;42.140;24.760;2023-04-06T00:40:54;99238.44;;;3.96;85.52
5753;BME280;2901;42.140;24.760;2023-04-06T00:43:19;99234.97;;;3.92;85.50
5753;BME280;2901;42.140;24.760;2023-04-06T00:45:45;99232.38;;;3.89;85.86
5753;BME280;2901;42.140;24.760;2023-04-06T00:48:10;99228.06;;;3.85;85.34
5753;BME280;2901;42.140;24.760;2023-04-06T00:50:36;99232.31;;;3.85;85.36
5753;BME280;2901;42.140;24.760;2023-04-06T00:53:01;99227.84;;;3.73;85.15
5753;BME280;2901;42.140;24.760;2023-04-06T00:55:30;99235.56;;;3.75;85.69
5753;BME280;2901;42.140;24.760;2023-04-06T00:57:59;99224.50;;;3.77;85.41
5753;BME280;2901;42.140;24.760;2023-04-06T01:00:26;99231.31;;;3.75;85.45
5753;BME280;2901;42.140;24.760;2023-04-06T01:02:52;99215.91;;;3.72;85.40
5753;BME280;2901;42.140;24.760;2023-04-06T01:05:18;99219.28;;;3.71;85.66
5753;BME280;2901;42.140;24.760;2023-04-06T01:07:43;99221.00;;;3.72;85.49
5753;BME280;2901;42.140;24.760;2023-04-06T01:10:09;99216.59;;;3.63;85.91
5753;BME280;2901;42.140;24.760;2023-04-06T01:12:34;99205.53;;;3.66;86.29
5753;BME280;2901;42.140;24.760;2023-04-06T01:15:01;99211.47;;;3.63;86.07
5753;BME280;2901;42.140;24.760;2023-04-06T01:17:26;99213.16;;;3.63;86.05
5753;BME280;2901;42.140;24.760;2023-04-06T01:19:53;99205.47;;;3.63;86.56
5753;BME280;2901;42.140;24.760;2023-04-06T01:22:19;99196.06;;;3.60;86.29
5753;BME280;2901;42.140;24.760;2023-04-06T01:24:45;99198.53;;;3.54;86.41
5753;BME280;2901;42.140;24.760;2023-04-06T01:27:11;99186.56;;;3.53;86.71
5753;BME280;2901;42.140;24.760;2023-04-06T01:29:37;99193.38;;;3.53;86.45
5753;BME280;2901;42.140;24.760;2023-04-06T01:32:02;99195.09;;;3.54;86.90
5753;BME280;2901;42.140;24.760;2023-04-06T01:34:28;99188.19;;;3.50;86.63
5753;BME280;2901;42.140;24.760;2023-04-06T01:36:53;99178.78;;;3.47;86.56
5753;BME280;2901;42.140;24.760;2023-04-06T01:39:19;99178.88;;;3.53;86.20
5753;BME280;2901;42.140;24.760;2023-04-06T01:41:44;99187.47;;;3.55;85.53
5753;BME280;2901;42.140;24.760;2023-04-06T01:44:12;99178.00;;;3.53;85.95
5753;BME280;2901;42.140;24.760;2023-04-06T01:46:37;99188.25;;;3.53;85.81
5753;BME280;2901;42.140;24.760;2023-04-06T01:49:03;99178.84;;;3.50;85.90
5753;BME280;2901;42.140;24.760;2023-04-06T01:51:28;99172.78;;;3.47;85.99
5753;BME280;2901;42.140;24.760;2023-04-06T01:53:53;99176.19;;;3.44;85.85
5753;BME280;2901;42.140;24.760;2023-04-06T01:56:19;99165.94;;;3.44;85.41
5753;BME280;2901;42.140;24.760;2023-04-06T01:58:45;99166.81;;;3.46;85.77
5753;BME280;2901;42.140;24.760;2023-04-06T02:01:10;99164.25;;;3.45;85.89
5753;BME280;2901;42.140;24.760;2023-04-06T02:03:36;99155.69;;;3.44;86.02
5753;BME280;2901;42.140;24.760;2023-04-06T02:06:01;99168.50;;;3.44;85.90
5753;BME280;2901;42.140;24.760;2023-04-06T02:08:26;99158.22;;;3.43;86.22
5753;BME280;2901;42.140;24.760;2023-04-06T02:10:52;99162.44;;;3.39;86.74
5753;BME280;2901;42.140;24.760;2023-04-06T02:13:17;99168.41;;;3.38;86.74
5753;BME280;2901;42.140;24.760;2023-04-06T02:15:43;99164.88;;;3.33;86.74
5753;BME280;2901;42.140;24.760;2023-04-06T02:18:08;99164.09;;;3.36;86.79
5753;BME280;2901;42.140;24.760;2023-04-06T02:20:35;99173.44;;;3.34;86.36
5753;BME280;2901;42.140;24.760;2023-04-06T02:23:00;99164.94;;;3.36;86.25
5753;BME280;2901;42.140;24.760;2023-04-06T02:25:25;99160.78;;;3.41;86.45
5753;BME280;2901;42.140;24.760;2023-04-06T02:27:51;99166.81;;;3.46;86.15
5753;BME280;2901;42.140;24.760;2023-04-06T02:30:17;99169.31;;;3.43;85.90
5753;BME280;2901;42.140;24.760;2023-04-06T02:32:42;99175.31;;;3.44;86.60
5753;BME280;2901;42.140;24.760;2023-04-06T02:35:08;99167.63;;;3.42;85.88
5753;BME280;2901;42.140;24.760;2023-04-06T02:37:33;99160.59;;;3.31;85.81
5753;BME280;2901;42.140;24.760;2023-04-06T02:39:58;99183.75;;;3.40;85.84
5753;BME280;2901;42.140;24.760;2023-04-06T02:42:24;99180.28;;;3.35;86.33
5753;BME280;2901;42.140;24.760;2023-04-06T02:44:49;99181.19;;;3.38;86.80
5753;BME280;2901;42.140;24.760;2023-04-06T02:47:15;99185.47;;;3.39;86.29
5753;BME280;2901;42.140;24.760;2023-04-06T02:49:40;99184.53;;;3.34;86.77
5753;BME280;2901;42.140;24.760;2023-04-06T02:52:06;99188.72;;;3.31;86.81
5753;BME280;2901;42.140;24.760;2023-04-06T02:54:31;99176.66;;;3.24;87.15
5753;BME280;2901;42.140;24.760;2023-04-06T02:56:56;99170.72;;;3.25;87.38
5753;BME280;2901;42.140;24.760;2023-04-06T02:59:22;99177.47;;;3.21;87.60
5753;BME280;2901;42.140;24.760;2023-04-06T03:01:47;99177.38;;;3.17;87.96
5753;BME280;2901;42.140;24.760;2023-04-06T03:04:13;99177.34;;;3.13;88.16
5753;BME280;2901;42.140;24.760;2023-04-06T03:06:38;99173.84;;;3.08;88.33
5753;BME280;2901;42.140;24.760;2023-04-06T03:09:04;99183.22;;;3.08;88.90
5753;BME280;2901;42.140;24.760;2023-04-06T03:11:29;99171.25;;;3.07;88.96
5753;BME280;2901;42.140;24.760;2023-04-06T03:13:55;99175.50;;;3.06;89.10
5753;BME280;2901;42.140;24.760;2023-04-06T03:16:20;99172.13;;;3.07;89.10
5753;BME280;2901;42.140;24.760;2023-04-06T03:18:45;99181.53;;;3.10;89.22
5753;BME280;2901;42.140;24.760;2023-04-06T03:21:12;99169.47;;;3.01;89.23
5753;BME280;2901;42.140;24.760;2023-04-06T03:23:38;99178.16;;;3.09;89.57
5753;BME280;2901;42.140;24.760;2023-04-06T03:26:03;99183.19;;;3.06;89.28
5753;BME280;2901;42.140;24.760;2023-04-06T03:28:29;99175.50;;;3.06;89.54
5753;BME280;2901;42.140;24.760;2023-04-06T03:30:54;99186.50;;;3.01;89.78
5753;BME280;2901;42.140;24.760;2023-04-06T03:33:20;99174.63;;;3.03;89.83
5753;BME280;2901;42.140;24.760;2023-04-06T03:35:45;99178.88;;;3.02;89.99
5753;BME280;2901;42.140;24.760;2023-04-06T03:38:10;99182.31;;;3.04;90.04
5753;BME280;2901;42.140;24.760;2023-04-06T03:40:36;99179.75;;;3.04;89.74
5753;BME280;2901;42.140;24.760;2023-04-06T03:43:01;99178.94;;;3.07;89.50
5753;BME280;2901;42.140;24.760;2023-04-06T03:45:26;99184.97;;;3.10;89.49
5753;BME280;2901;42.140;24.760;2023-04-06T03:47:52;99183.28;;;3.11;89.67
5753;BME280;2901;42.140;24.760;2023-04-06T03:50:17;99179.94;;;3.15;90.01
5753;BME280;2901;42.140;24.760;2023-04-06T03:52:43;99182.44;;;3.13;89.25
5753;BME280;2901;42.140;24.760;2023-04-06T03:55:08;99172.28;;;3.17;89.16
5753;BME280;2901;42.140;24.760;2023-04-06T03:57:34;99180.91;;;3.22;89.23
5753;BME280;2901;42.140;24.760;2023-04-06T03:59:59;99175.91;;;3.28;89.23
5753;BME280;2901;42.140;24.760;2023-04-06T04:02:24;99173.38;;;3.29;88.54
5753;BME280;2901;42.140;24.760;2023-04-06T04:04:50;99181.94;;;3.33;88.40
5753;BME280;2901;42.140;24.760;2023-04-06T04:07:15;99176.91;;;3.37;87.94
5753;BME280;2901;42.140;24.760;2023-04-06T04:09:41;99168.44;;;3.41;88.59
5753;BME280;2901;42.140;24.760;2023-04-06T04:12:06;99174.56;;;3.51;88.31
5753;BME280;2901;42.140;24.760;2023-04-06T04:14:31;99177.22;;;3.57;87.56
5753;BME280;2901;42.140;24.760;2023-04-06T04:16:57;99171.31;;;3.61;87.65
5753;BME280;2901;42.140;24.760;2023-04-06T04:19:22;99171.41;;;3.67;87.64
5753;BME280;2901;42.140;24.760;2023-04-06T04:21:48;99168.06;;;3.71;87.18
5753;BME280;2901;42.140;24.760;2023-04-06T04:24:13;99162.22;;;3.78;87.11
5753;BME280;2901;42.140;24.760;2023-04-06T04:26:39;99164.81;;;3.83;86.70
5753;BME280;2901;42.140;24.760;2023-04-06T04:29:05;99163.22;;;3.89;86.74
5753;BME280;2901;42.140;24.760;2023-04-06T04:31:31;99168.41;;;3.95;86.06
5753;BME280;2901;42.140;24.760;2023-04-06T04:33:57;99164.19;;;3.97;85.81
5753;BME280;2901;42.140;24.760;2023-04-06T04:36:23;99163.53;;;4.10;85.75
5753;BME280;2901;42.140;24.760;2023-04-06T04:38:49;99167.00;;;4.15;85.09
5753;BME280;2901;42.140;24.760;2023-04-06T04:41:14;99171.25;;;4.15;84.88
5753;BME280;2901;42.140;24.760;2023-04-06T04:43:40;99169.59;;;4.17;85.47
5753;BME280;2901;42.140;24.760;2023-04-06T04:46:05;99173.84;;;4.16;85.14
5753;BME280;2901;42.140;24.760;2023-04-06T04:48:32;99163.59;;;4.16;84.62
5753;BME280;2901;42.140;24.760;2023-04-06T04:50:57;99161.13;;;4.23;84.69
5753;BME280;2901;42.140;24.760;2023-04-06T04:53:22;99167.16;;;4.26;84.32
5753;BME280;2901;42.140;24.760;2023-04-06T04:55:48;99150.13;;;4.30;84.34
5753;BME280;2901;42.140;24.760;2023-04-06T04:58:13;99165.53;;;4.33;84.25
5753;BME280;2901;42.140;24.760;2023-04-06T05:00:46;99164.78;;;4.41;84.54
5753;BME280;2901;42.140;24.760;2023-04-06T05:03:29;99158.84;;;4.45;84.14
5753;BME280;2901;42.140;24.760;2023-04-06T05:05:55;99158.81;;;4.42;84.10
5753;BME280;2901;42.140;24.760;2023-04-06T05:08:20;99162.28;;;4.46;83.57
5753;BME280;2901;42.140;24.760;2023-04-06T05:10:46;99153.78;;;4.51;83.22
5753;BME280;2901;42.140;24.760;2023-04-06T05:13:11;99146.97;;;4.50;82.74
5753;BME280;2901;42.140;24.760;2023-04-06T05:15:37;99153.84;;;4.54;82.63
5753;BME280;2901;42.140;24.760;2023-04-06T05:18:04;99157.34;;;4.62;81.90
5753;BME280;2901;42.140;24.760;2023-04-06T05:20:29;99138.47;;;4.56;81.60
5753;BME280;2901;42.140;24.760;2023-04-06T05:22:55;99144.59;;;4.67;81.49
5753;BME280;2901;42.140;24.760;2023-04-06T05:25:21;99147.19;;;4.70;81.10
5753;BME280;2901;42.140;24.760;2023-04-06T05:27:46;99145.56;;;4.78;81.33
5753;BME280;2901;42.140;24.760;2023-04-06T05:30:12;99150.00;;;4.93;80.90
5753;BME280;2901;42.140;24.760;2023-04-06T05:32:37;99154.28;;;4.94;80.02
5753;BME280;2901;42.140;24.760;2023-04-06T05:35:03;99150.91;;;4.96;80.80
5753;BME280;2901;42.140;24.760;2023-04-06T05:37:28;99144.13;;;5.04;79.80
5753;BME280;2901;42.140;24.760;2023-04-06T05:39:54;99154.50;;;5.18;79.90
5753;BME280;2901;42.140;24.760;2023-04-06T05:42:21;99150.25;;;5.17;79.99
5753;BME280;2901;42.140;24.760;2023-04-06T05:44:47;99149.41;;;5.19;79.97
5753;BME280;2901;42.140;24.760;2023-04-06T05:47:12;99139.16;;;5.19;79.00
5753;BME280;2901;42.140;24.760;2023-04-06T05:49:38;99150.22;;;5.15;79.63
5753;BME280;2901;42.140;24.760;2023-04-06T05:52:03;99144.25;;;5.18;79.27
5753;BME280;2901;42.140;24.760;2023-04-06T05:54:29;99142.53;;;5.18;79.05
5753;BME280;2901;42.140;24.760;2023-04-06T05:56:55;99134.78;;;5.14;79.25
5753;BME280;2901;42.140;24.760;2023-04-06T05:59:20;99134.03;;;5.24;79.44
5753;BME280;2901;42.140;24.760;2023-04-06T06:01:46;99132.38;;;5.31;79.19
5753;BME280;2901;42.140;24.760;2023-04-06T06:04:11;99129.03;;;5.38;79.40
5753;BME280;2901;42.140;24.760;2023-04-06T06:06:36;99128.19;;;5.39;79.16
5753;BME280;2901;42.140;24.760;2023-04-06T06:09:02;99117.91;;;5.40;78.16
5753;BME280;2901;42.140;24.760;2023-04-06T06:11:29;99115.41;;;5.48;78.35
5753;BME280;2901;42.140;24.760;2023-04-06T06:13:55;99124.81;;;5.47;78.32
5753;BME280;2901;42.140;24.760;2023-04-06T06:16:21;99114.53;;;5.44;77.76
5753;BME280;2901;42.140;24.760;2023-04-06T06:18:46;99112.78;;;5.40;77.32
5753;BME280;2901;42.140;24.760;2023-04-06T06:21:11;99106.88;;;5.52;76.75
5753;BME280;2901;42.140;24.760;2023-04-06T06:23:38;99108.66;;;5.62;76.89
5753;BME280;2901;42.140;24.760;2023-04-06T06:26:03;99104.47;;;5.71;75.86
5753;BME280;2901;42.140;24.760;2023-04-06T06:28:29;99116.59;;;5.91;75.34
5753;BME280;2901;42.140;24.760;2023-04-06T06:30:55;99113.16;;;5.93;74.35
5753;BME280;2901;42.140;24.760;2023-04-06T06:33:20;99109.81;;;6.05;74.71
5753;BME280;2901;42.140;24.760;2023-04-06T06:35:46;99108.16;;;6.16;74.21
5753;BME280;2901;42.140;24.760;2023-04-06T06:38:11;99107.34;;;6.21;73.76
5753;BME280;2901;42.140;24.760;2023-04-06T06:40:36;99097.03;;;6.20;73.27
5753;BME280;2901;42.140;24.760;2023-04-06T06:43:02;99110.69;;;6.13;73.51
5753;BME280;2901;42.140;24.760;2023-04-06T06:45:28;99110.72;;;6.14;73.31
5753;BME280;2901;42.140;24.760;2023-04-06T06:47:54;99111.63;;;6.21;72.32
5753;BME280;2901;42.140;24.760;2023-04-06T06:50:20;99107.31;;;6.20;72.54
5753;BME280;2901;42.140;24.760;2023-04-06T06:52:45;99097.00;;;6.11;72.97
5753;BME280;2901;42.140;24.760;2023-04-06T06:55:11;99115.91;;;6.23;73.21
5753;BME280;2901;42.140;24.760;2023-04-06T06:57:36;99115.94;;;6.28;72.70
5753;BME280;2901;42.140;24.760;2023-04-06T07:00:04;99109.09;;;6.32;72.99
5753;BME280;2901;42.140;24.760;2023-04-06T07:02:30;99108.28;;;6.46;73.20
5753;BME280;2901;42.140;24.760;2023-04-06T07:04:56;99107.47;;;6.65;73.23
5753;BME280;2901;42.140;24.760;2023-04-06T07:07:21;99098.94;;;6.80;71.93
5753;BME280;2901;42.140;24.760;2023-04-06T07:09:46;99105.84;;;6.93;71.48
5753;BME280;2901;42.140;24.760;2023-04-06T07:12:12;99111.84;;;6.95;71.66
5753;BME280;2901;42.140;24.760;2023-04-06T07:14:37;99099.84;;;7.00;72.41
5753;BME280;2901;42.140;24.760;2023-04-06T07:17:03;99099.84;;;7.18;71.03
5753;BME280;2901;42.140;24.760;2023-04-06T07:19:28;99108.44;;;7.25;71.35
5753;BME280;2901;42.140;24.760;2023-04-06T07:21:53;99115.31;;;7.30;71.11
5753;BME280;2901;42.140;24.760;2023-04-06T07:24:19;99099.00;;;7.25;71.08
5753;BME280;2901;42.140;24.760;2023-04-06T07:26:44;99092.16;;;7.34;70.36
5753;BME280;2901;42.140;24.760;2023-04-06T07:29:10;99099.00;;;7.44;69.95
5753;BME280;2901;42.140;24.760;2023-04-06T07:31:35;99099.84;;;7.49;69.01
5753;BME280;2901;42.140;24.760;2023-04-06T07:34:01;99104.16;;;7.53;69.13
5753;BME280;2901;42.140;24.760;2023-04-06T07:36:26;99106.69;;;7.68;68.70
5753;BME280;2901;42.140;24.760;2023-04-06T07:38:52;99104.13;;;7.65;68.09
5753;BME280;2901;42.140;24.760;2023-04-06T07:41:17;99114.44;;;7.56;68.57
5753;BME280;2901;42.140;24.760;2023-04-06T07:43:43;99093.84;;;7.48;68.72
5753;BME280;2901;42.140;24.760;2023-04-06T07:46:08;99102.44;;;7.64;68.84
5753;BME280;2901;42.140;24.760;2023-04-06T07:48:34;99103.25;;;7.75;68.68
5753;BME280;2901;42.140;24.760;2023-04-06T07:51:05;99095.53;;;7.72;69.25
5753;BME280;2901;42.140;24.760;2023-04-06T07:53:31;99098.09;;;7.86;68.37
5753;BME280;2901;42.140;24.760;2023-04-06T07:56:00;99098.94;;;7.95;67.34
5753;BME280;2901;42.140;24.760;2023-04-06T07:58:25;99108.31;;;8.11;67.47
5753;BME280;2901;42.140;24.760;2023-04-06T08:00:51;99101.50;;;8.03;67.66
5753;BME280;2901;42.140;24.760;2023-04-06T08:03:17;99104.97;;;7.82;68.25
5753;BME280;2901;42.140;24.760;2023-04-06T08:05:42;99098.88;;;8.04;68.12
5753;BME280;2901;42.140;24.760;2023-04-06T08:08:08;99119.50;;;8.10;68.10
5753;BME280;2901;42.140;24.760;2023-04-06T08:10:34;99103.19;;;8.04;66.99
5753;BME280;2901;42.140;24.760;2023-04-06T08:13:00;99089.41;;;8.17;67.94
5753;BME280;2901;42.140;24.760;2023-04-06T08:15:25;99086.81;;;8.26;67.13
5753;BME280;2901;42.140;24.760;2023-04-06T08:17:51;99088.53;;;8.28;66.85
5753;BME280;2901;42.140;24.760;2023-04-06T08:20:16;99095.34;;;8.49;66.53
5753;BME280;2901;42.140;24.760;2023-04-06T08:22:42;99090.16;;;8.52;65.85
5753;BME280;2901;42.140;24.760;2023-04-06T08:25:07;99090.09;;;8.61;65.74
5753;BME280;2901;42.140;24.760;2023-04-06T08:27:33;99087.44;;;8.78;65.96
5753;BME280;2901;42.140;24.760;2023-04-06T08:29:58;99091.75;;;8.73;66.55
5753;BME280;2901;42.140;24.760;2023-04-06T08:32:24;99083.06;;;8.86;65.49
5753;BME280;2901;42.140;24.760;2023-04-06T08:34:54;99091.66;;;8.90;64.91
5753;BME280;2901;42.140;24.760;2023-04-06T08:37:20;99091.69;;;8.88;63.99
5753;BME280;2901;42.140;24.760;2023-04-06T08:39:45;99083.84;;;9.02;65.33
5753;BME280;2901;42.140;24.760;2023-04-06T08:42:18;99081.19;;;9.09;64.82
5753;BME280;2901;42.140;24.760;2023-04-06T08:44:44;99075.03;;;9.27;64.34
5753;BME280;2901;42.140;24.760;2023-04-06T08:47:11;99074.09;;;9.32;63.42
5753;BME280;2901;42.140;24.760;2023-04-06T08:49:37;99072.44;;;9.25;62.42
5753;BME280;2901;42.140;24.760;2023-04-06T08:52:06;99068.28;;;9.09;63.77
5753;BME280;2901;42.140;24.760;2023-04-06T08:54:33;99064.03;;;9.02;62.58
5753;BME280;2901;42.140;24.760;2023-04-06T08:56:59;99056.28;;;9.05;63.62
5753;BME280;2901;42.140;24.760;2023-04-06T08:59:26;99040.63;;;9.19;63.21
5753;BME280;2901;42.140;24.760;2023-04-06T09:01:52;99044.75;;;9.43;62.04
5753;BME280;2901;42.140;24.760;2023-04-06T09:04:19;99045.53;;;9.49;62.30
5753;BME280;2901;42.140;24.760;2023-04-06T09:06:45;99048.97;;;9.50;61.24
5753;BME280;2901;42.140;24.760;2023-04-06T09:09:10;99041.94;;;9.65;61.68
5753;BME280;2901;42.140;24.760;2023-04-06T09:11:48;99037.56;;;9.73;62.61
5753;BME280;2901;42.140;24.760;2023-04-06T09:14:14;99035.00;;;9.70;61.65
5753;BME280;2901;42.140;24.760;2023-04-06T09:16:44;99034.09;;;9.73;61.57
5753;BME280;2901;42.140;24.760;2023-04-06T09:19:11;99044.25;;;9.91;61.47
5753;BME280;2901;42.140;24.760;2023-04-06T09:21:37;99019.34;;;9.84;60.46
5753;BME280;2901;42.140;24.760;2023-04-06T09:24:03;99018.28;;;10.00;58.99
5753;BME280;2901;42.140;24.760;2023-04-06T09:26:29;99026.63;;;10.26;59.14
5753;BME280;2901;42.140;24.760;2023-04-06T09:28:57;99026.25;;;10.54;59.20
5753;BME280;2901;42.140;24.760;2023-04-06T09:31:24;99013.41;;;10.46;59.10
5753;BME280;2901;42.140;24.760;2023-04-06T09:33:51;99013.31;;;10.54;59.03
5753;BME280;2901;42.140;24.760;2023-04-06T09:36:17;99001.91;;;10.67;57.78
5753;BME280;2901;42.140;24.760;2023-04-06T09:38:55;99012.13;;;10.76;57.58
5753;BME280;2901;42.140;24.760;2023-04-06T09:41:25;98994.53;;;10.96;56.63
5753;BME280;2901;42.140;24.760;2023-04-06T09:44:01;99009.31;;;10.89;55.64
5753;BME280;2901;42.140;24.760;2023-04-06T09:46:27;99003.06;;;11.01;54.32
5753;BME280;2901;42.140;24.760;2023-04-06T09:48:52;98990.88;;;11.09;52.98
5753;BME280;2901;42.140;24.760;2023-04-06T09:51:19;99000.03;;;11.27;53.62
5753;BME280;2901;42.140;24.760;2023-04-06T09:53:47;99005.28;;;11.24;53.34
5753;BME280;2901;42.140;24.760;2023-04-06T09:56:21;98987.00;;;11.31;53.70
5753;BME280;2901;42.140;24.760;2023-04-06T09:58:49;98997.16;;;11.43;51.95
5753;BME280;2901;42.140;24.760;2023-04-06T10:01:19;98997.66;;;11.16;53.04
5753;BME280;2901;42.140;24.760;2023-04-06T10:04:07;98999.34;;;11.17;52.94
5753;BME280;2901;42.140;24.760;2023-04-06T10:06:35;98988.06;;;11.20;52.35
5753;BME280;2901;42.140;24.760;2023-04-06T10:09:04;98993.63;;;10.99;52.48
5753;BME280;2901;42.140;24.760;2023-04-06T10:11:30;98993.06;;;10.78;52.79
5753;BME280;2901;42.140;24.760;2023-04-06T10:13:56;98976.31;;;11.01;53.53
5753;BME280;2901;42.140;24.760;2023-04-06T10:16:22;99000.13;;;11.22;52.29
5753;BME280;2901;42.140;24.760;2023-04-06T10:18:53;98989.09;;;11.11;52.58
5753;BME280;2901;42.140;24.760;2023-04-06T10:21:23;98981.09;;;11.25;51.08
5753;BME280;2901;42.140;24.760;2023-04-06T10:23:55;98979.91;;;11.42;50.26
5753;BME280;2901;42.140;24.760;2023-04-06T10:26:22;98971.41;;;11.34;50.79
5753;BME280;2901;42.140;24.760;2023-04-06T10:28:49;98967.53;;;11.57;50.28
5753;BME280;2901;42.140;24.760;2023-04-06T10:31:15;98976.03;;;11.65;48.81
5753;BME280;2901;42.140;24.760;2023-04-06T10:33:41;98971.69;;;11.65;50.42
5753;BME280;2901;42.140;24.760;2023-04-06T10:36:13;98967.47;;;11.60;51.07
5753;BME280;2901;42.140;24.760;2023-04-06T10:38:40;98952.69;;;11.65;50.60
5753;BME280;2901;42.140;24.760;2023-04-06T10:41:10;98953.44;;;11.70;50.21
5753;BME280;2901;42.140;24.760;2023-04-06T10:43:37;98964.00;;;11.61;50.87
5753;BME280;2901;42.140;24.760;2023-04-06T10:46:05;98951.47;;;11.84;50.75
5753;BME280;2901;42.140;24.760;2023-04-06T10:49:12;98951.94;;;12.03;49.87
5753;BME280;2901;42.140;24.760;2023-04-06T10:51:38;98955.38;;;12.05;50.15
5753;BME280;2901;42.140;24.760;2023-04-06T10:54:05;98943.75;;;12.21;48.39
5753;BME280;2901;42.140;24.760;2023-04-06T10:56:32;98955.19;;;12.12;47.84
5753;BME280;2901;42.140;24.760;2023-04-06T10:58:59;98948.38;;;12.07;48.58
5753;BME280;2901;42.140;24.760;2023-04-06T11:01:25;98952.50;;;12.15;46.73
5753;BME280;2901;42.140;24.760;2023-04-06T11:03:55;98929.06;;;11.80;48.31
5753;BME280;2901;42.140;24.760;2023-04-06T11:06:29;98926.03;;;12.01;48.99
5753;BME280;2901;42.140;24.760;2023-04-06T11:08:56;98934.91;;;12.29;47.54
5753;BME280;2901;42.140;24.760;2023-04-06T11:11:23;98935.22;;;12.53;46.99
5753;BME280;2901;42.140;24.760;2023-04-06T11:13:52;98924.91;;;12.51;45.81
5753;BME280;2901;42.140;24.760;2023-04-06T11:16:20;98929.28;;;12.11;44.69
5753;BME280;2901;42.140;24.760;2023-04-06T11:18:49;98936.91;;;12.17;45.54
5753;BME280;2901;42.140;24.760;2023-04-06T11:21:15;98908.72;;;12.38;45.79
5753;BME280;2901;42.140;24.760;2023-04-06T11:23:40;98913.41;;;12.61;46.19
5753;BME280;2901;42.140;24.760;2023-04-06T11:26:13;98908.34;;;12.90;47.14
5753;BME280;2901;42.140;24.760;2023-04-06T11:28:41;98904.97;;;12.87;43.95
5753;BME280;2901;42.140;24.760;2023-04-06T11:31:07;98915.03;;;12.99;45.41
5753;BME280;2901;42.140;24.760;2023-04-06T11:33:37;98908.34;;;12.90;45.30
5753;BME280;2901;42.140;24.760;2023-04-06T11:36:03;98910.38;;;12.78;44.77
5753;BME280;2901;42.140;24.760;2023-04-06T11:38:29;98901.13;;;12.68;45.23
5753;BME280;2901;42.140;24.760;2023-04-06T11:40:55;98903.72;;;12.68;44.70
5753;BME280;2901;42.140;24.760;2023-04-06T11:43:28;98925.88;;;12.45;44.99
5753;BME280;2901;42.140;24.760;2023-04-06T11:46:00;98923.88;;;12.20;46.44
5753;BME280;2901;42.140;24.760;2023-04-06T11:48:27;98909.66;;;12.36;46.56
5753;BME280;2901;42.140;24.760;2023-04-06T11:50:57;98909.09;;;12.22;45.39
5753;BME280;2901;42.140;24.760;2023-04-06T11:53:23;98918.69;;;12.20;46.04
5753;BME280;2901;42.140;24.760;2023-04-06T11:55:48;98908.38;;;12.15;47.11
5753;BME280;2901;42.140;24.760;2023-04-06T11:58:14;98902.81;;;12.32;46.25
5753;BME280;2901;42.140;24.760;2023-04-06T12:00:40;98904.16;;;12.49;46.45
5753;BME280;2901;42.140;24.760;2023-04-06T12:03:10;98899.81;;;12.50;46.77
5753;BME280;2901;42.140;24.760;2023-04-06T12:05:35;98893.34;;;12.68;46.17
5753;BME280;2901;42.140;24.760;2023-04-06T12:08:01;98889.59;;;12.78;46.66
5753;BME280;2901;42.140;24.760;2023-04-06T12:10:26;98902.16;;;12.61;45.80
5753;BME280;2901;42.140;24.760;2023-04-06T12:12:52;98892.88;;;12.51;46.27
5753;BME280;2901;42.140;24.760;2023-04-06T12:15:17;98893.19;;;12.72;46.77
5753;BME280;2901;42.140;24.760;2023-04-06T12:17:43;98882.50;;;12.84;46.28
5753;BME280;2901;42.140;24.760;2023-04-06T12:20:09;98895.38;;;12.89;47.10
5753;BME280;2901;42.140;24.760;2023-04-06T12:22:35;98895.94;;;12.68;47.14
5753;BME280;2901;42.140;24.760;2023-04-06T12:25:01;98894.06;;;12.73;47.04
5753;BME280;2901;42.140;24.760;2023-04-06T12:27:26;98890.56;;;12.74;46.85
5753;BME280;2901;42.140;24.760;2023-04-06T12:29:52;98895.97;;;13.00;46.21
5753;BME280;2901;42.140;24.760;2023-04-06T12:32:18;98886.94;;;13.15;45.27
5753;BME280;2901;42.140;24.760;2023-04-06T12:34:44;98891.41;;;13.08;46.39
5753;BME280;2901;42.140;24.760;2023-04-06T12:37:10;98876.22;;;12.93;45.63
5753;BME280;2901;42.140;24.760;2023-04-06T12:39:35;98893.94;;;12.77;46.57
5753;BME280;2901;42.140;24.760;2023-04-06T12:42:01;98874.44;;;12.61;46.37
5753;BME280;2901;42.140;24.760;2023-04-06T12:44:27;98878.56;;;12.70;46.39
5753;BME280;2901;42.140;24.760;2023-04-06T12:46:53;98871.28;;;12.84;46.62
5753;BME280;2901;42.140;24.760;2023-04-06T12:49:18;98877.94;;;12.94;46.18
5753;BME280;2901;42.140;24.760;2023-04-06T12:51:44;98876.06;;;12.99;45.65
5753;BME280;2901;42.140;24.760;2023-04-06T12:54:10;98869.47;;;13.20;45.65
5753;BME280;2901;42.140;24.760;2023-04-06T12:56:37;98865.34;;;13.11;45.58
5753;BME280;2901;42.140;24.760;2023-04-06T12:59:02;98872.94;;;13.20;45.91
5753;BME280;2901;42.140;24.760;2023-04-06T13:01:28;98879.97;;;13.15;46.03
5753;BME280;2901;42.140;24.760;2023-04-06T13:03:53;98865.25;;;13.16;46.51
5753;BME280;2901;42.140;24.760;2023-04-06T13:06:19;98872.63;;;13.31;45.48
5753;BME280;2901;42.140;24.760;2023-04-06T13:08:44;98869.56;;;13.17;45.47
5753;BME280;2901;42.140;24.760;2023-04-06T13:11:12;98866.91;;;13.18;45.16
5753;BME280;2901;42.140;24.760;2023-04-06T13:13:37;98861.09;;;13.09;45.84
5753;BME280;2901;42.140;24.760;2023-04-06T13:16:06;98879.78;;;13.23;45.29